createdAt,value
2023-05-07T00:00:30.538Z,81.61
2023-05-07T00:05:32.076Z,81.41
2023-05-07T00:10:33.594Z,81.48
2023-05-07T00:15:35.106Z,81.86
2023-05-07T00:20:36.608Z,81.63
2023-05-07T00:25:38.087Z,81.66
2023-05-07T00:30:46.570Z,82.02
2023-05-07T00:35:48.033Z,82.27
2023-05-07T00:40:49.576Z,82.40
2023-05-07T00:45:51.390Z,82.51
2023-05-07T00:50:53.519Z,82.75
2023-05-07T00:55:55.888Z,82.90
2023-05-07T01:00:59.354Z,83.16
2023-05-07T01:06:02.308Z,82.91
2023-05-07T01:11:04.791Z,83.58
2023-05-07T01:16:07.635Z,83.64
2023-05-07T01:21:12.376Z,83.63
2023-05-07T01:26:13.877Z,83.58
2023-05-07T01:31:16.569Z,83.31
2023-05-07T01:36:22.099Z,83.45
2023-05-07T01:41:23.739Z,83.48
2023-05-07T01:46:27.318Z,83.39
2023-05-07T01:51:28.933Z,83.46
2023-05-07T01:56:31.149Z,83.27
2023-05-07T02:01:32.709Z,83.55
2023-05-07T02:06:34.275Z,83.42
2023-05-07T02:11:36.137Z,83.43
2023-05-07T02:16:37.718Z,83.46
2023-05-07T02:21:39.380Z,83.63
2023-05-07T02:26:42.413Z,83.52
2023-05-07T02:31:43.966Z,83.69
2023-05-07T02:36:46.554Z,83.84
2023-05-07T02:41:48.045Z,83.57
2023-05-07T02:46:49.530Z,83.47
2023-05-07T02:51:51.029Z,83.35
2023-05-07T02:56:52.543Z,83.34
2023-05-07T03:01:54.041Z,83.39
2023-05-07T03:06:55.871Z,83.12
2023-05-07T03:11:58.123Z,83.02
2023-05-07T03:16:59.662Z,83.03
2023-05-07T03:22:01.433Z,82.78
2023-05-07T03:27:03.013Z,82.91
2023-05-07T03:32:05.033Z,82.61
2023-05-07T03:37:06.547Z,82.47
2023-05-07T03:42:08.148Z,82.36
2023-05-07T03:47:11.209Z,82.28
2023-05-07T03:52:12.721Z,82.19
2023-05-07T03:57:14.184Z,82.03
2023-05-07T04:02:15.935Z,82.00
2023-05-07T04:07:17.485Z,81.93
2023-05-07T04:12:19.094Z,81.61
2023-05-07T04:17:20.947Z,81.66
2023-05-07T04:22:22.610Z,81.77
2023-05-07T04:27:24.098Z,81.97
2023-05-07T04:32:26.072Z,81.91
2023-05-07T04:37:27.736Z,81.74
2023-05-07T04:42:29.241Z,81.68
2023-05-07T04:47:30.759Z,81.39
2023-05-07T04:52:32.374Z,81.24
2023-05-07T04:57:34.150Z,81.49
2023-05-07T05:02:36.006Z,81.26
2023-05-07T05:07:37.685Z,81.13
2023-05-07T05:12:39.439Z,80.94
2023-05-07T05:17:41.467Z,80.96
2023-05-07T05:22:43.326Z,81.06
2023-05-07T05:27:44.858Z,80.17
2023-05-07T05:32:46.387Z,79.91
2023-05-07T05:37:47.988Z,79.87
2023-05-07T05:42:49.494Z,80.07
2023-05-07T05:47:51.278Z,80.23
2023-05-07T05:52:52.886Z,79.82
2023-05-07T05:57:54.604Z,79.61
2023-05-07T06:02:56.372Z,79.31
2023-05-07T06:07:57.919Z,78.95
2023-05-07T06:12:59.432Z,79.07
2023-05-07T06:18:00.965Z,78.55
2023-05-07T06:23:02.477Z,78.05
2023-05-07T06:28:04.046Z,77.70
2023-05-07T06:33:05.602Z,77.66
2023-05-07T06:38:07.075Z,78.11
2023-05-07T06:43:08.554Z,78.15
2023-05-07T06:48:10.053Z,77.78
2023-05-07T06:53:11.580Z,76.37
2023-05-07T06:58:13.177Z,75.33
2023-05-07T07:03:14.734Z,74.66
2023-05-07T07:08:18.181Z,73.53
2023-05-07T07:13:20.404Z,73.37
2023-05-07T07:18:22.305Z,73.12
2023-05-07T07:23:24.662Z,73.75
2023-05-07T07:28:26.371Z,73.67
2023-05-07T07:33:27.955Z,73.57
2023-05-07T07:38:29.504Z,72.94
2023-05-07T07:43:31.015Z,73.29
2023-05-07T07:48:34.132Z,73.72
2023-05-07T07:53:36.001Z,73.06
2023-05-07T07:58:38.974Z,72.30
2023-05-07T08:03:40.596Z,72.48
2023-05-07T08:08:42.258Z,71.86
2023-05-07T08:13:44.066Z,71.53
2023-05-07T08:18:45.945Z,71.24
2023-05-07T08:23:47.473Z,71.40
2023-05-07T08:28:49.213Z,71.40
2023-05-07T08:33:51.601Z,71.56
2023-05-07T08:38:53.904Z,71.36
2023-05-07T08:44:01.269Z,70.66
2023-05-07T08:49:03.729Z,70.48
2023-05-07T08:54:06.534Z,70.32
2023-05-07T08:59:08.193Z,70.43
2023-05-07T09:04:10.951Z,69.77
2023-05-07T09:09:15.861Z,69.06
2023-05-07T09:14:18.048Z,69.10
2023-05-07T09:19:26.357Z,69.09
2023-05-07T09:24:29.619Z,68.85
2023-05-07T09:29:36.238Z,68.41
2023-05-07T09:34:37.993Z,68.46
2023-05-07T09:39:47.230Z,67.53
2023-05-07T09:44:48.902Z,67.64
2023-05-07T09:49:51.165Z,67.28
2023-05-07T09:54:54.483Z,66.96
2023-05-07T09:59:59.108Z,66.48
2023-05-07T10:05:02.800Z,65.27
2023-05-07T10:10:05.955Z,64.74
2023-05-07T10:15:09.239Z,63.89
2023-05-07T10:20:11.807Z,63.30
2023-05-07T10:25:24.056Z,63.23
2023-05-07T10:30:29.414Z,62.61
2023-05-07T10:35:40.074Z,62.65
2023-05-07T10:40:41.590Z,63.04
2023-05-07T10:45:43.220Z,62.87
2023-05-07T10:50:49.197Z,62.83
2023-05-07T10:55:53.694Z,62.79
2023-05-07T11:01:00.483Z,62.26
2023-05-07T11:06:15.977Z,61.93
2023-05-07T11:11:17.597Z,62.35
2023-05-07T11:16:24.124Z,62.82
2023-05-07T11:21:42.083Z,62.46
2023-05-07T11:26:49.607Z,62.14
2023-05-07T11:31:53.216Z,62.15
2023-05-07T11:36:54.954Z,62.10
2023-05-07T11:41:56.767Z,61.87
2023-05-07T11:46:59.291Z,61.84
2023-05-07T11:52:01.371Z,62.06
2023-05-07T11:57:03.251Z,60.93
2023-05-07T12:02:04.941Z,60.36
2023-05-07T12:07:07.116Z,61.11
2023-05-07T12:12:08.899Z,61.86
2023-05-07T12:17:12.143Z,62.71
2023-05-07T12:22:14.118Z,61.46
2023-05-07T12:27:16.967Z,61.10
2023-05-07T12:32:21.508Z,60.99
2023-05-07T12:37:29.038Z,60.07
2023-05-07T12:42:43.515Z,59.35
2023-05-07T12:47:48.632Z,58.02
2023-05-07T12:52:50.620Z,58.01
2023-05-07T12:57:53.779Z,58.41
2023-05-07T13:02:55.344Z,58.70
2023-05-07T13:07:57.790Z,58.40
2023-05-07T13:13:02.440Z,58.73
2023-05-07T13:18:04.259Z,58.01
2023-05-07T13:23:05.883Z,58.24
2023-05-07T13:28:11.158Z,58.33
2023-05-07T13:33:13.527Z,58.71
2023-05-07T13:38:16.906Z,58.50
2023-05-07T13:43:19.878Z,58.48
2023-05-07T13:48:21.378Z,58.20
2023-05-07T13:53:22.980Z,58.30
2023-05-07T13:58:24.691Z,57.82
2023-05-07T14:03:26.238Z,57.32
2023-05-07T14:08:31.678Z,57.64
2023-05-07T14:13:35.465Z,57.93
2023-05-07T14:18:38.179Z,58.32
2023-05-07T14:23:39.846Z,58.66
2023-05-07T14:28:42.134Z,58.88
2023-05-07T14:33:43.649Z,58.90
2023-05-07T14:38:45.966Z,58.04
2023-05-07T14:43:51.008Z,57.22
2023-05-07T14:48:52.684Z,56.55
2023-05-07T14:53:54.155Z,55.51
2023-05-07T14:58:55.844Z,54.97
2023-05-07T15:03:57.522Z,56.75
2023-05-07T15:08:59.375Z,56.71
2023-05-07T15:14:00.968Z,55.80
2023-05-07T15:19:02.857Z,55.47
2023-05-07T15:24:04.509Z,55.16
2023-05-07T15:29:11.064Z,54.40
2023-05-07T15:34:13.023Z,53.32
2023-05-07T15:39:14.595Z,52.79
2023-05-07T15:44:16.093Z,51.05
2023-05-07T15:49:17.848Z,51.51
2023-05-07T15:54:21.149Z,51.40
2023-05-07T15:59:22.821Z,51.07
2023-05-07T16:04:24.626Z,50.21
2023-05-07T16:09:27.233Z,50.28
2023-05-07T16:14:28.815Z,49.50
2023-05-07T16:19:30.431Z,49.89
2023-05-07T16:24:32.727Z,50.07
2023-05-07T16:29:34.245Z,49.59
2023-05-07T16:34:35.779Z,49.25
2023-05-07T16:39:38.697Z,48.46
2023-05-07T16:44:40.353Z,49.21
2023-05-07T16:49:41.848Z,50.29
2023-05-07T16:54:43.334Z,50.00
2023-05-07T16:59:44.838Z,50.63
2023-05-07T17:04:46.304Z,50.79
2023-05-07T17:09:47.975Z,51.45
2023-05-07T17:14:49.723Z,52.11
2023-05-07T17:19:51.237Z,52.54
2023-05-07T17:24:52.960Z,53.15
2023-05-07T17:29:54.768Z,53.72
2023-05-07T17:34:57.026Z,54.24
2023-05-07T17:39:58.563Z,54.78
2023-05-07T17:45:00.209Z,55.10
2023-05-07T17:50:02.998Z,55.55
2023-05-07T17:55:05.447Z,56.04
2023-05-07T18:00:07.827Z,56.29
2023-05-07T18:05:09.852Z,57.40
2023-05-07T18:10:11.603Z,57.65
2023-05-07T18:15:13.313Z,57.62
2023-05-07T18:20:14.978Z,58.07
2023-05-07T18:25:16.462Z,58.04
2023-05-07T18:30:25.280Z,58.33
2023-05-07T18:35:26.770Z,58.74
2023-05-07T18:40:28.501Z,58.81
2023-05-07T18:45:30.150Z,59.26
2023-05-07T18:50:31.632Z,59.43
2023-05-07T18:55:33.125Z,59.56
2023-05-07T19:00:37.574Z,60.53
2023-05-07T19:05:39.111Z,60.72
2023-05-07T19:10:40.622Z,60.17
2023-05-07T19:15:42.204Z,60.30
2023-05-07T19:20:43.845Z,60.71
2023-05-07T19:25:45.499Z,61.05
2023-05-07T19:30:49.944Z,61.50
2023-05-07T19:35:54.010Z,62.18
2023-05-07T19:40:55.888Z,61.86
2023-05-07T19:45:57.440Z,62.84
2023-05-07T19:51:01.909Z,62.26
2023-05-07T19:56:04.864Z,62.34
2023-05-07T20:01:06.789Z,62.78
2023-05-07T20:06:08.461Z,63.21
2023-05-07T20:11:11.525Z,63.38
2023-05-07T20:16:13.187Z,63.25
2023-05-07T20:21:15.539Z,63.78
2023-05-07T20:26:17.052Z,64.01
2023-05-07T20:31:19.136Z,64.07
2023-05-07T20:36:20.750Z,64.68
2023-05-07T20:41:24.739Z,64.44
2023-05-07T20:46:27.552Z,64.73
2023-05-07T20:51:30.437Z,64.65
2023-05-07T20:56:31.922Z,64.98
2023-05-07T21:01:34.586Z,64.75
2023-05-07T21:06:36.325Z,65.39
2023-05-07T21:11:37.858Z,65.90
2023-05-07T21:16:40.779Z,65.89
2023-05-07T21:21:43.099Z,66.31
2023-05-07T21:26:44.644Z,66.82
2023-05-07T21:31:46.390Z,67.22
2023-05-07T21:36:47.892Z,66.92
2023-05-07T21:41:49.476Z,67.78
2023-05-07T21:46:51.311Z,67.26
2023-05-07T21:51:52.872Z,67.95
2023-05-07T21:56:54.354Z,68.41
2023-05-07T22:01:55.976Z,67.95
2023-05-07T22:06:57.634Z,68.25
2023-05-07T22:11:59.263Z,69.45
2023-05-07T22:17:00.969Z,69.01
2023-05-07T22:22:02.766Z,69.02
2023-05-07T22:27:04.276Z,70.27
2023-05-07T22:32:05.804Z,70.47
2023-05-07T22:37:07.379Z,71.62
2023-05-07T22:42:08.962Z,73.80
2023-05-07T22:47:10.781Z,72.47
2023-05-07T22:52:12.310Z,71.02
2023-05-07T22:57:13.805Z,73.18
2023-05-07T23:02:15.450Z,73.04
2023-05-07T23:07:16.989Z,72.71
2023-05-07T23:12:18.574Z,73.86
2023-05-07T23:17:20.091Z,73.38
2023-05-07T23:22:21.852Z,76.09
2023-05-07T23:27:23.352Z,76.02
2023-05-07T23:32:24.898Z,75.66
2023-05-07T23:37:26.540Z,75.31
2023-05-07T23:42:28.101Z,74.86
2023-05-07T23:47:30.577Z,77.62
2023-05-07T23:52:32.345Z,76.71
2023-05-07T23:57:33.874Z,76.63
